sensor_id;sensor_type;location;lat;lon;timestamp;P1;durP1;ratioP1;P2;durP2;ratioP2
1507;SDS011;745;48.586;10.032;2023-12-22T00:01:58;1.87;;;1.70;;
1507;SDS011;745;48.586;10.032;2023-12-22T00:03:58;2.50;;;1.47;;
1507;SDS011;745;48.586;10.032;2023-12-22T00:05:59;1.43;;;1.33;;
1507;SDS011;745;48.586;10.032;2023-12-22T00:07:59;3.83;;;1.77;;
1507;SDS011;745;48.586;10.032;2023-12-22T00:09:59;1.47;;;1.37;;
1507;SDS011;745;48.586;10.032;2023-12-22T00:11:59;1.80;;;1.57;;
1507;SDS011;745;48.586;10.032;2023-12-22T00:14:00;3.40;;;1.80;;
1507;SDS011;745;48.586;10.032;2023-12-22T00:16:00;3.57;;;1.67;;
1507;SDS011;745;48.586;10.032;2023-12-22T00:18:01;1.40;;;1.30;;
1507;SDS011;745;48.586;10.032;2023-12-22T00:20:01;1.57;;;1.47;;
1507;SDS011;745;48.586;10.032;2023-12-22T00:22:03;2.00;;;1.65;;
1507;SDS011;745;48.586;10.032;2023-12-22T00:24:03;2.07;;;1.80;;
1507;SDS011;745;48.586;10.032;2023-12-22T00:26:07;2.43;;;1.70;;
1507;SDS011;745;48.586;10.032;2023-12-22T00:28:07;2.75;;;1.70;;
1507;SDS011;745;48.586;10.032;2023-12-22T00:30:08;3.03;;;1.93;;
1507;SDS011;745;48.586;10.032;2023-12-22T00:32:08;2.67;;;1.70;;
1507;SDS011;745;48.586;10.032;2023-12-22T00:34:09;2.93;;;1.70;;
1507;SDS011;745;48.586;10.032;2023-12-22T00:36:10;2.20;;;2.10;;
1507;SDS011;745;48.586;10.032;2023-12-22T00:38:10;3.23;;;2.93;;
1507;SDS011;745;48.586;10.032;2023-12-22T00:40:10;4.73;;;2.10;;
1507;SDS011;745;48.586;10.032;2023-12-22T00:42:11;4.87;;;2.27;;
1507;SDS011;745;48.586;10.032;2023-12-22T00:44:11;6.40;;;2.50;;
1507;SDS011;745;48.586;10.032;2023-12-22T00:46:12;4.07;;;2.20;;
1507;SDS011;745;48.586;10.032;2023-12-22T00:48:13;3.88;;;2.38;;
1507;SDS011;745;48.586;10.032;2023-12-22T00:50:13;2.33;;;2.13;;
1507;SDS011;745;48.586;10.032;2023-12-22T00:52:13;5.70;;;2.53;;
1507;SDS011;745;48.586;10.032;2023-12-22T00:54:14;4.90;;;2.60;;
1507;SDS011;745;48.586;10.032;2023-12-22T00:56:14;4.00;;;2.10;;
1507;SDS011;745;48.586;10.032;2023-12-22T00:58:15;4.60;;;2.57;;
1507;SDS011;745;48.586;10.032;2023-12-22T01:00:15;6.03;;;2.50;;
1507;SDS011;745;48.586;10.032;2023-12-22T01:02:16;3.60;;;2.40;;
1507;SDS011;745;48.586;10.032;2023-12-22T01:04:17;4.70;;;3.28;;
1507;SDS011;745;48.586;10.032;2023-12-22T01:06:17;4.03;;;2.43;;
1507;SDS011;745;48.586;10.032;2023-12-22T01:08:20;4.23;;;2.60;;
1507;SDS011;745;48.586;10.032;2023-12-22T01:10:21;4.22;;;1.80;;
1507;SDS011;745;48.586;10.032;2023-12-22T01:12:21;2.70;;;1.67;;
1507;SDS011;745;48.586;10.032;2023-12-22T01:14:21;2.23;;;1.47;;
1507;SDS011;745;48.586;10.032;2023-12-22T01:16:22;3.07;;;1.50;;
1507;SDS011;745;48.586;10.032;2023-12-22T01:18:24;2.20;;;1.75;;
1507;SDS011;745;48.586;10.032;2023-12-22T01:20:28;2.42;;;1.77;;
1507;SDS011;745;48.586;10.032;2023-12-22T01:22:29;3.87;;;1.70;;
1507;SDS011;745;48.586;10.032;2023-12-22T01:24:31;1.60;;;1.50;;
1507;SDS011;745;48.586;10.032;2023-12-22T01:26:31;2.13;;;1.40;;
1507;SDS011;745;48.586;10.032;2023-12-22T01:28:31;1.90;;;1.20;;
1507;SDS011;745;48.586;10.032;2023-12-22T01:30:33;1.05;;;0.95;;
1507;SDS011;745;48.586;10.032;2023-12-22T01:32:33;1.70;;;0.90;;
1507;SDS011;745;48.586;10.032;2023-12-22T01:34:36;0.90;;;0.90;;
1507;SDS011;745;48.586;10.032;2023-12-22T01:36:36;0.80;;;0.80;;
1507;SDS011;745;48.586;10.032;2023-12-22T01:38:37;0.90;;;0.90;;
1507;SDS011;745;48.586;10.032;2023-12-22T01:40:37;0.80;;;0.80;;
1507;SDS011;745;48.586;10.032;2023-12-22T01:42:38;1.00;;;1.00;;
1507;SDS011;745;48.586;10.032;2023-12-22T01:44:39;2.30;;;1.17;;
1507;SDS011;745;48.586;10.032;2023-12-22T01:46:40;1.37;;;1.10;;
1507;SDS011;745;48.586;10.032;2023-12-22T01:48:40;1.40;;;1.23;;
1507;SDS011;745;48.586;10.032;2023-12-22T01:50:40;1.30;;;1.20;;
1507;SDS011;745;48.586;10.032;2023-12-22T01:52:41;3.00;;;1.80;;
1507;SDS011;745;48.586;10.032;2023-12-22T01:54:42;2.00;;;1.80;;
1507;SDS011;745;48.586;10.032;2023-12-22T01:56:42;1.80;;;1.70;;
1507;SDS011;745;48.586;10.032;2023-12-22T01:58:43;2.30;;;1.60;;
1507;SDS011;745;48.586;10.032;2023-12-22T02:00:43;3.17;;;1.70;;
1507;SDS011;745;48.586;10.032;2023-12-22T02:02:43;4.23;;;2.07;;
1507;SDS011;745;48.586;10.032;2023-12-22T02:04:44;2.40;;;2.20;;
1507;SDS011;745;48.586;10.032;2023-12-22T02:06:45;2.85;;;1.88;;
1507;SDS011;745;48.586;10.032;2023-12-22T02:08:48;2.70;;;2.20;;
1507;SDS011;745;48.586;10.032;2023-12-22T02:10:49;2.60;;;2.17;;
1507;SDS011;745;48.586;10.032;2023-12-22T02:12:49;2.73;;;2.33;;
1507;SDS011;745;48.586;10.032;2023-12-22T02:14:50;4.30;;;2.63;;
1507;SDS011;745;48.586;10.032;2023-12-22T02:16:52;4.27;;;2.70;;
1507;SDS011;745;48.586;10.032;2023-12-22T02:18:55;6.13;;;3.08;;
1507;SDS011;745;48.586;10.032;2023-12-22T02:20:56;3.83;;;3.08;;
1507;SDS011;745;48.586;10.032;2023-12-22T02:22:57;2.70;;;2.50;;
1507;SDS011;745;48.586;10.032;2023-12-22T02:24:57;3.27;;;2.33;;
1507;SDS011;745;48.586;10.032;2023-12-22T02:27:03;2.73;;;2.47;;
1507;SDS011;745;48.586;10.032;2023-12-22T02:29:08;5.95;;;2.38;;
1507;SDS011;745;48.586;10.032;2023-12-22T02:31:10;4.30;;;2.38;;
1507;SDS011;745;48.586;10.032;2023-12-22T02:33:17;3.42;;;2.00;;
1507;SDS011;745;48.586;10.032;2023-12-22T02:35:19;4.33;;;2.20;;
1507;SDS011;745;48.586;10.032;2023-12-22T02:37:21;4.45;;;2.58;;
1507;SDS011;745;48.586;10.032;2023-12-22T02:39:22;5.22;;;2.28;;
1507;SDS011;745;48.586;10.032;2023-12-22T02:41:23;3.30;;;2.07;;
1507;SDS011;745;48.586;10.032;2023-12-22T02:43:23;3.20;;;1.70;;
1507;SDS011;745;48.586;10.032;2023-12-22T02:45:23;5.83;;;2.20;;
1507;SDS011;745;48.586;10.032;2023-12-22T02:47:24;2.00;;;1.60;;
1507;SDS011;745;48.586;10.032;2023-12-22T02:49:24;4.70;;;1.70;;
1507;SDS011;745;48.586;10.032;2023-12-22T02:51:25;2.63;;;1.63;;
1507;SDS011;745;48.586;10.032;2023-12-22T02:53:25;4.67;;;1.90;;
1507;SDS011;745;48.586;10.032;2023-12-22T02:55:25;3.80;;;1.80;;
1507;SDS011;745;48.586;10.032;2023-12-22T02:57:26;4.80;;;1.87;;
1507;SDS011;745;48.586;10.032;2023-12-22T02:59:26;2.20;;;1.27;;
1507;SDS011;745;48.586;10.032;2023-12-22T03:01:28;5.05;;;1.45;;
1507;SDS011;745;48.586;10.032;2023-12-22T03:03:28;2.53;;;1.40;;
1507;SDS011;745;48.586;10.032;2023-12-22T03:05:29;3.87;;;1.97;;
1507;SDS011;745;48.586;10.032;2023-12-22T03:07:29;1.60;;;1.50;;
1507;SDS011;745;48.586;10.032;2023-12-22T03:09:30;4.40;;;1.40;;
1507;SDS011;745;48.586;10.032;2023-12-22T03:11:30;3.70;;;1.70;;
1507;SDS011;745;48.586;10.032;2023-12-22T03:13:30;3.10;;;1.60;;
1507;SDS011;745;48.586;10.032;2023-12-22T03:15:31;2.20;;;1.50;;
1507;SDS011;745;48.586;10.032;2023-12-22T03:17:31;2.23;;;1.50;;
1507;SDS011;745;48.586;10.032;2023-12-22T03:19:32;3.60;;;1.60;;
1507;SDS011;745;48.586;10.032;2023-12-22T03:21:32;1.60;;;1.30;;
1507;SDS011;745;48.586;10.032;2023-12-22T03:23:33;1.57;;;1.40;;
1507;SDS011;745;48.586;10.032;2023-12-22T03:25:33;1.87;;;1.67;;
1507;SDS011;745;48.586;10.032;2023-12-22T03:27:33;3.70;;;1.50;;
1507;SDS011;745;48.586;10.032;2023-12-22T03:29:34;1.50;;;1.40;;
1507;SDS011;745;48.586;10.032;2023-12-22T03:31:34;5.13;;;1.70;;
1507;SDS011;745;48.586;10.032;2023-12-22T03:33:34;2.97;;;1.80;;
1507;SDS011;745;48.586;10.032;2023-12-22T03:35:34;4.10;;;1.60;;
1507;SDS011;745;48.586;10.032;2023-12-22T03:37:35;4.77;;;1.70;;
1507;SDS011;745;48.586;10.032;2023-12-22T03:39:35;4.30;;;2.30;;
1507;SDS011;745;48.586;10.032;2023-12-22T03:41:35;2.73;;;1.67;;
1507;SDS011;745;48.586;10.032;2023-12-22T03:43:36;5.70;;;1.53;;
1507;SDS011;745;48.586;10.032;2023-12-22T03:45:36;2.60;;;1.60;;
1507;SDS011;745;48.586;10.032;2023-12-22T03:47:36;2.13;;;1.50;;
1507;SDS011;745;48.586;10.032;2023-12-22T03:49:36;3.40;;;1.70;;
1507;SDS011;745;48.586;10.032;2023-12-22T03:51:37;5.27;;;1.80;;
1507;SDS011;745;48.586;10.032;2023-12-22T03:53:37;3.47;;;1.70;;
1507;SDS011;745;48.586;10.032;2023-12-22T03:55:38;2.07;;;1.70;;
1507;SDS011;745;48.586;10.032;2023-12-22T03:57:38;1.97;;;1.60;;
1507;SDS011;745;48.586;10.032;2023-12-22T03:59:38;3.40;;;2.30;;
1507;SDS011;745;48.586;10.032;2023-12-22T04:01:39;3.63;;;2.30;;
1507;SDS011;745;48.586;10.032;2023-12-22T04:03:39;2.17;;;1.93;;
1507;SDS011;745;48.586;10.032;2023-12-22T04:05:40;4.43;;;1.67;;
1507;SDS011;745;48.586;10.032;2023-12-22T04:07:40;4.50;;;1.73;;
1507;SDS011;745;48.586;10.032;2023-12-22T04:09:40;5.33;;;2.00;;
1507;SDS011;745;48.586;10.032;2023-12-22T04:11:40;3.57;;;1.50;;
1507;SDS011;745;48.586;10.032;2023-12-22T04:13:41;2.13;;;1.93;;
1507;SDS011;745;48.586;10.032;2023-12-22T04:15:41;5.80;;;1.80;;
1507;SDS011;745;48.586;10.032;2023-12-22T04:17:42;3.83;;;1.67;;
1507;SDS011;745;48.586;10.032;2023-12-22T04:19:42;3.23;;;1.60;;
1507;SDS011;745;48.586;10.032;2023-12-22T04:21:42;4.70;;;1.73;;
1507;SDS011;745;48.586;10.032;2023-12-22T04:23:43;2.37;;;1.50;;
1507;SDS011;745;48.586;10.032;2023-12-22T04:25:43;6.70;;;2.40;;
1507;SDS011;745;48.586;10.032;2023-12-22T04:27:44;5.97;;;1.70;;
1507;SDS011;745;48.586;10.032;2023-12-22T04:29:44;4.70;;;1.60;;
1507;SDS011;745;48.586;10.032;2023-12-22T04:31:45;2.60;;;1.90;;
1507;SDS011;745;48.586;10.032;2023-12-22T04:33:45;4.20;;;2.00;;
1507;SDS011;745;48.586;10.032;2023-12-22T04:35:45;3.03;;;1.50;;
1507;SDS011;745;48.586;10.032;2023-12-22T04:37:46;3.03;;;1.70;;
1507;SDS011;745;48.586;10.032;2023-12-22T04:39:46;2.03;;;1.40;;
1507;SDS011;745;48.586;10.032;2023-12-22T04:41:46;3.20;;;1.70;;
1507;SDS011;745;48.586;10.032;2023-12-22T04:43:46;3.83;;;1.70;;
1507;SDS011;745;48.586;10.032;2023-12-22T04:45:47;1.83;;;1.20;;
1507;SDS011;745;48.586;10.032;2023-12-22T04:47:47;1.50;;;1.37;;
1507;SDS011;745;48.586;10.032;2023-12-22T04:49:48;3.00;;;1.50;;
1507;SDS011;745;48.586;10.032;2023-12-22T04:51:48;1.30;;;1.20;;
1507;SDS011;745;48.586;10.032;2023-12-22T04:53:48;1.40;;;1.30;;
1507;SDS011;745;48.586;10.032;2023-12-22T04:55:49;1.40;;;1.20;;
1507;SDS011;745;48.586;10.032;2023-12-22T04:57:49;2.40;;;1.60;;
1507;SDS011;745;48.586;10.032;2023-12-22T04:59:49;1.83;;;1.40;;
1507;SDS011;745;48.586;10.032;2023-12-22T05:01:50;3.13;;;1.30;;
1507;SDS011;745;48.586;10.032;2023-12-22T05:03:50;1.73;;;1.20;;
1507;SDS011;745;48.586;10.032;2023-12-22T05:05:50;2.60;;;1.33;;
1507;SDS011;745;48.586;10.032;2023-12-22T05:07:51;5.60;;;1.60;;
1507;SDS011;745;48.586;10.032;2023-12-22T05:09:51;3.90;;;1.83;;
1507;SDS011;745;48.586;10.032;2023-12-22T05:11:52;7.70;;;2.05;;
1507;SDS011;745;48.586;10.032;2023-12-22T05:13:53;6.00;;;1.87;;
1507;SDS011;745;48.586;10.032;2023-12-22T05:15:53;6.10;;;2.00;;
1507;SDS011;745;48.586;10.032;2023-12-22T05:17:53;4.93;;;2.33;;
1507;SDS011;745;48.586;10.032;2023-12-22T05:19:54;6.30;;;2.40;;
1507;SDS011;745;48.586;10.032;2023-12-22T05:21:54;3.20;;;1.93;;
1507;SDS011;745;48.586;10.032;2023-12-22T05:23:56;3.50;;;2.05;;
1507;SDS011;745;48.586;10.032;2023-12-22T05:25:57;5.13;;;2.40;;
1507;SDS011;745;48.586;10.032;2023-12-22T05:27:57;3.47;;;2.73;;
1507;SDS011;745;48.586;10.032;2023-12-22T05:29:57;5.60;;;2.60;;
1507;SDS011;745;48.586;10.032;2023-12-22T05:32:01;4.35;;;1.90;;
1507;SDS011;745;48.586;10.032;2023-12-22T05:34:01;4.90;;;2.60;;
1507;SDS011;745;48.586;10.032;2023-12-22T05:36:03;6.43;;;2.60;;
1507;SDS011;745;48.586;10.032;2023-12-22T05:38:03;7.10;;;3.07;;
1507;SDS011;745;48.586;10.032;2023-12-22T05:40:04;13.63;;;5.27;;
1507;SDS011;745;48.586;10.032;2023-12-22T05:42:06;16.20;;;4.20;;
1507;SDS011;745;48.586;10.032;2023-12-22T05:44:07;10.60;;;6.00;;
1507;SDS011;745;48.586;10.032;2023-12-22T05:46:07;5.97;;;2.30;;
1507;SDS011;745;48.586;10.032;2023-12-22T05:48:07;7.77;;;4.17;;
1507;SDS011;745;48.586;10.032;2023-12-22T05:50:08;4.00;;;2.00;;
1507;SDS011;745;48.586;10.032;2023-12-22T05:52:08;6.33;;;3.23;;
1507;SDS011;745;48.586;10.032;2023-12-22T05:54:12;6.75;;;2.85;;
1507;SDS011;745;48.586;10.032;2023-12-22T05:56:21;4.33;;;2.57;;
1507;SDS011;745;48.586;10.032;2023-12-22T05:58:22;8.38;;;4.35;;
1507;SDS011;745;48.586;10.032;2023-12-22T06:00:22;8.87;;;5.53;;
1507;SDS011;745;48.586;10.032;2023-12-22T06:02:22;10.43;;;5.17;;
1507;SDS011;745;48.586;10.032;2023-12-22T06:04:23;8.33;;;4.03;;
1507;SDS011;745;48.586;10.032;2023-12-22T06:06:24;7.22;;;4.07;;
1507;SDS011;745;48.586;10.032;2023-12-22T06:08:25;11.00;;;4.90;;
1507;SDS011;745;48.586;10.032;2023-12-22T06:10:25;7.33;;;3.83;;
1507;SDS011;745;48.586;10.032;2023-12-22T06:12:25;8.40;;;3.87;;
1507;SDS011;745;48.586;10.032;2023-12-22T06:14:26;10.00;;;4.43;;
1507;SDS011;745;48.586;10.032;2023-12-22T06:16:26;9.07;;;4.60;;
1507;SDS011;745;48.586;10.032;2023-12-22T06:18:26;11.50;;;5.07;;
1507;SDS011;745;48.586;10.032;2023-12-22T06:20:27;13.70;;;5.07;;
1507;SDS011;745;48.586;10.032;2023-12-22T06:22:27;9.30;;;4.23;;
1507;SDS011;745;48.586;10.032;2023-12-22T06:24:27;13.33;;;5.83;;
1507;SDS011;745;48.586;10.032;2023-12-22T06:26:28;6.47;;;3.13;;
1507;SDS011;745;48.586;10.032;2023-12-22T06:28:28;11.13;;;3.07;;
1507;SDS011;745;48.586;10.032;2023-12-22T06:30:29;7.07;;;4.30;;
1507;SDS011;745;48.586;10.032;2023-12-22T06:32:30;10.95;;;4.35;;
1507;SDS011;745;48.586;10.032;2023-12-22T06:34:30;12.43;;;5.30;;
1507;SDS011;745;48.586;10.032;2023-12-22T06:36:31;9.00;;;3.20;;
1507;SDS011;745;48.586;10.032;2023-12-22T06:38:31;6.10;;;2.70;;
1507;SDS011;745;48.586;10.032;2023-12-22T06:40:32;8.07;;;3.17;;
1507;SDS011;745;48.586;10.032;2023-12-22T06:42:32;3.58;;;2.20;;
1507;SDS011;745;48.586;10.032;2023-12-22T06:44:32;5.37;;;2.20;;
1507;SDS011;745;48.586;10.032;2023-12-22T06:46:33;6.73;;;2.27;;
1507;SDS011;745;48.586;10.032;2023-12-22T06:48:33;7.00;;;2.30;;
1507;SDS011;745;48.586;10.032;2023-12-22T06:50:37;10.52;;;2.83;;
1507;SDS011;745;48.586;10.032;2023-12-22T06:52:39;5.80;;;2.15;;
1507;SDS011;745;48.586;10.032;2023-12-22T06:54:39;8.30;;;2.50;;
1507;SDS011;745;48.586;10.032;2023-12-22T06:56:40;5.97;;;2.30;;
1507;SDS011;745;48.586;10.032;2023-12-22T06:58:40;5.53;;;2.67;;
1507;SDS011;745;48.586;10.032;2023-12-22T07:00:40;8.33;;;2.07;;
1507;SDS011;745;48.586;10.032;2023-12-22T07:02:41;6.73;;;2.27;;
1507;SDS011;745;48.586;10.032;2023-12-22T07:07:04;5.63;;;2.22;;
1507;SDS011;745;48.586;10.032;2023-12-22T07:11:16;15.23;;;2.92;;
1507;SDS011;745;48.586;10.032;2023-12-22T07:13:18;7.03;;;2.83;;
1507;SDS011;745;48.586;10.032;2023-12-22T07:15:18;6.78;;;2.70;;
1507;SDS011;745;48.586;10.032;2023-12-22T07:17:18;8.40;;;2.50;;
1507;SDS011;745;48.586;10.032;2023-12-22T07:19:19;9.10;;;2.60;;
1507;SDS011;745;48.586;10.032;2023-12-22T07:21:19;10.60;;;3.40;;
1507;SDS011;745;48.586;10.032;2023-12-22T07:23:20;4.87;;;2.63;;
1507;SDS011;745;48.586;10.032;2023-12-22T07:25:20;6.50;;;3.40;;
1507;SDS011;745;48.586;10.032;2023-12-22T07:27:21;4.83;;;2.20;;
1507;SDS011;745;48.586;10.032;2023-12-22T07:29:21;9.52;;;2.70;;
1507;SDS011;745;48.586;10.032;2023-12-22T07:31:22;8.27;;;2.43;;
1507;SDS011;745;48.586;10.032;2023-12-22T07:33:22;5.30;;;2.00;;
1507;SDS011;745;48.586;10.032;2023-12-22T07:35:22;6.67;;;2.10;;
1507;SDS011;745;48.586;10.032;2023-12-22T07:37:23;3.53;;;2.00;;
1507;SDS011;745;48.586;10.032;2023-12-22T07:39:23;8.73;;;2.03;;
1507;SDS011;745;48.586;10.032;2023-12-22T07:41:24;4.23;;;2.07;;
1507;SDS011;745;48.586;10.032;2023-12-22T07:43:24;9.30;;;2.47;;
1507;SDS011;745;48.586;10.032;2023-12-22T07:45:25;8.80;;;2.10;;
1507;SDS011;745;48.586;10.032;2023-12-22T07:47:25;6.43;;;2.53;;
1507;SDS011;745;48.586;10.032;2023-12-22T07:49:26;3.27;;;1.90;;
1507;SDS011;745;48.586;10.032;2023-12-22T07:51:27;4.37;;;2.20;;
1507;SDS011;745;48.586;10.032;2023-12-22T07:53:27;4.20;;;2.13;;
1507;SDS011;745;48.586;10.032;2023-12-22T07:55:27;3.80;;;2.17;;
1507;SDS011;745;48.586;10.032;2023-12-22T07:57:28;2.90;;;2.00;;
1507;SDS011;745;48.586;10.032;2023-12-22T07:59:28;4.63;;;2.10;;
1507;SDS011;745;48.586;10.032;2023-12-22T08:01:28;7.40;;;2.23;;
1507;SDS011;745;48.586;10.032;2023-12-22T08:03:29;2.90;;;2.27;;
1507;SDS011;745;48.586;10.032;2023-12-22T08:05:29;4.17;;;1.77;;
1507;SDS011;745;48.586;10.032;2023-12-22T08:07:33;6.68;;;2.08;;
1507;SDS011;745;48.586;10.032;2023-12-22T08:09:33;6.17;;;1.90;;
1507;SDS011;745;48.586;10.032;2023-12-22T08:11:34;4.97;;;2.10;;
1507;SDS011;745;48.586;10.032;2023-12-22T08:13:34;6.17;;;2.57;;
1507;SDS011;745;48.586;10.032;2023-12-22T08:15:34;2.30;;;2.10;;
1507;SDS011;745;48.586;10.032;2023-12-22T08:17:35;7.43;;;2.70;;
1507;SDS011;745;48.586;10.032;2023-12-22T08:19:39;2.43;;;2.20;;
1507;SDS011;745;48.586;10.032;2023-12-22T08:21:42;4.28;;;2.28;;
1507;SDS011;745;48.586;10.032;2023-12-22T08:23:43;6.00;;;2.00;;
1507;SDS011;745;48.586;10.032;2023-12-22T08:25:43;4.63;;;2.10;;
1507;SDS011;745;48.586;10.032;2023-12-22T08:27:44;6.40;;;2.40;;
1507;SDS011;745;48.586;10.032;2023-12-22T08:29:44;3.50;;;2.17;;
1507;SDS011;745;48.586;10.032;2023-12-22T08:31:44;7.77;;;2.87;;
1507;SDS011;745;48.586;10.032;2023-12-22T08:33:45;2.30;;;1.60;;
1507;SDS011;745;48.586;10.032;2023-12-22T08:35:45;10.90;;;2.40;;
1507;SDS011;745;48.586;10.032;2023-12-22T08:37:45;6.00;;;2.30;;
1507;SDS011;745;48.586;10.032;2023-12-22T08:39:46;4.30;;;1.80;;
1507;SDS011;745;48.586;10.032;2023-12-22T08:41:46;4.70;;;2.67;;
1507;SDS011;745;48.586;10.032;2023-12-22T08:43:47;5.88;;;1.83;;
1507;SDS011;745;48.586;10.032;2023-12-22T08:45:47;2.87;;;1.67;;
1507;SDS011;745;48.586;10.032;2023-12-22T08:47:48;5.70;;;2.00;;
1507;SDS011;745;48.586;10.032;2023-12-22T08:49:48;3.30;;;1.67;;
1507;SDS011;745;48.586;10.032;2023-12-22T08:51:48;1.70;;;1.40;;
1507;SDS011;745;48.586;10.032;2023-12-22T08:53:48;2.30;;;1.57;;
1507;SDS011;745;48.586;10.032;2023-12-22T08:55:50;3.67;;;1.40;;
1507;SDS011;745;48.586;10.032;2023-12-22T08:57:50;2.40;;;1.33;;
1507;SDS011;745;48.586;10.032;2023-12-22T08:59:50;1.47;;;1.37;;
1507;SDS011;745;48.586;10.032;2023-12-22T09:01:51;4.07;;;1.10;;
1507;SDS011;745;48.586;10.032;2023-12-22T09:03:51;3.17;;;1.50;;
1507;SDS011;745;48.586;10.032;2023-12-22T09:05:52;1.35;;;1.13;;
1507;SDS011;745;48.586;10.032;2023-12-22T09:07:53;2.80;;;1.63;;
1507;SDS011;745;48.586;10.032;2023-12-22T09:09:53;2.33;;;1.40;;
1507;SDS011;745;48.586;10.032;2023-12-22T09:11:54;4.30;;;1.83;;
1507;SDS011;745;48.586;10.032;2023-12-22T09:13:54;3.83;;;1.90;;
1507;SDS011;745;48.586;10.032;2023-12-22T09:15:56;3.20;;;1.30;;
1507;SDS011;745;48.586;10.032;2023-12-22T09:17:57;7.25;;;2.13;;
1507;SDS011;745;48.586;10.032;2023-12-22T09:19:57;2.50;;;1.70;;
1507;SDS011;745;48.586;10.032;2023-12-22T09:21:58;4.53;;;1.83;;
1507;SDS011;745;48.586;10.032;2023-12-22T09:23:58;4.03;;;1.70;;
1507;SDS011;745;48.586;10.032;2023-12-22T09:25:58;7.00;;;2.30;;
1507;SDS011;745;48.586;10.032;2023-12-22T09:27:59;7.10;;;2.30;;
1507;SDS011;745;48.586;10.032;2023-12-22T09:29:59;4.73;;;2.20;;
1507;SDS011;745;48.586;10.032;2023-12-22T09:31:59;5.77;;;2.53;;
1507;SDS011;745;48.586;10.032;2023-12-22T09:34:00;6.30;;;2.60;;
1507;SDS011;745;48.586;10.032;2023-12-22T09:36:00;8.53;;;3.70;;
1507;SDS011;745;48.586;10.032;2023-12-22T09:38:01;6.80;;;2.97;;
1507;SDS011;745;48.586;10.032;2023-12-22T09:40:01;4.50;;;2.53;;
1507;SDS011;745;48.586;10.032;2023-12-22T09:42:01;8.17;;;2.20;;
1507;SDS011;745;48.586;10.032;2023-12-22T09:44:02;3.80;;;1.90;;
1507;SDS011;745;48.586;10.032;2023-12-22T09:46:04;5.25;;;2.30;;
1507;SDS011;745;48.586;10.032;2023-12-22T09:48:05;8.88;;;3.85;;
1507;SDS011;745;48.586;10.032;2023-12-22T09:50:07;4.80;;;2.63;;
1507;SDS011;745;48.586;10.032;2023-12-22T09:52:08;8.90;;;2.50;;
1507;SDS011;745;48.586;10.032;2023-12-22T09:54:08;11.63;;;3.57;;
1507;SDS011;745;48.586;10.032;2023-12-22T09:56:09;7.80;;;2.60;;
1507;SDS011;745;48.586;10.032;2023-12-22T09:58:10;5.63;;;2.83;;
1507;SDS011;745;48.586;10.032;2023-12-22T10:00:11;9.10;;;3.95;;
1507;SDS011;745;48.586;10.032;2023-12-22T10:02:12;6.70;;;2.45;;
1507;SDS011;745;48.586;10.032;2023-12-22T10:04:13;7.00;;;2.70;;
1507;SDS011;745;48.586;10.032;2023-12-22T10:06:14;9.27;;;3.60;;
1507;SDS011;745;48.586;10.032;2023-12-22T10:08:16;10.52;;;3.58;;
1507;SDS011;745;48.586;10.032;2023-12-22T10:10:19;7.13;;;2.67;;
1507;SDS011;745;48.586;10.032;2023-12-22T10:12:20;9.33;;;2.67;;
1507;SDS011;745;48.586;10.032;2023-12-22T10:14:20;9.43;;;2.40;;
1507;SDS011;745;48.586;10.032;2023-12-22T10:16:22;7.47;;;3.15;;
1507;SDS011;745;48.586;10.032;2023-12-22T10:18:22;7.87;;;3.10;;
1507;SDS011;745;48.586;10.032;2023-12-22T10:20:24;10.20;;;3.00;;
1507;SDS011;745;48.586;10.032;2023-12-22T10:22:24;11.27;;;3.53;;
1507;SDS011;745;48.586;10.032;2023-12-22T10:24:37;5.63;;;2.63;;
1507;SDS011;745;48.586;10.032;2023-12-22T10:26:44;9.10;;;3.30;;
1507;SDS011;745;48.586;10.032;2023-12-22T10:28:46;5.80;;;3.03;;
1507;SDS011;745;48.586;10.032;2023-12-22T10:30:47;9.75;;;3.00;;
1507;SDS011;745;48.586;10.032;2023-12-22T10:32:49;7.00;;;2.90;;
1507;SDS011;745;48.586;10.032;2023-12-22T10:34:51;8.30;;;3.15;;
1507;SDS011;745;48.586;10.032;2023-12-22T10:36:52;7.22;;;2.85;;
1507;SDS011;745;48.586;10.032;2023-12-22T10:38:53;10.37;;;2.47;;
1507;SDS011;745;48.586;10.032;2023-12-22T10:40:56;10.53;;;3.30;;
1507;SDS011;745;48.586;10.032;2023-12-22T10:42:58;7.22;;;2.88;;
1507;SDS011;745;48.586;10.032;2023-12-22T10:44:59;8.80;;;2.40;;
1507;SDS011;745;48.586;10.032;2023-12-22T10:47:00;9.70;;;3.20;;
1507;SDS011;745;48.586;10.032;2023-12-22T10:49:01;7.00;;;2.83;;
1507;SDS011;745;48.586;10.032;2023-12-22T10:51:02;8.25;;;3.40;;
1507;SDS011;745;48.586;10.032;2023-12-22T10:53:05;7.00;;;2.57;;
1507;SDS011;745;48.586;10.032;2023-12-22T10:55:06;5.97;;;2.60;;
1507;SDS011;745;48.586;10.032;2023-12-22T10:57:06;5.57;;;2.50;;
1507;SDS011;745;48.586;10.032;2023-12-22T10:59:07;8.20;;;2.70;;
1507;SDS011;745;48.586;10.032;2023-12-22T11:01:08;7.00;;;3.55;;
1507;SDS011;745;48.586;10.032;2023-12-22T11:03:09;9.03;;;3.03;;
1507;SDS011;745;48.586;10.032;2023-12-22T11:05:12;9.73;;;2.85;;
1507;SDS011;745;48.586;10.032;2023-12-22T11:07:16;6.88;;;2.80;;
1507;SDS011;745;48.586;10.032;2023-12-22T11:09:20;9.18;;;3.50;;
1507;SDS011;745;48.586;10.032;2023-12-22T11:11:33;11.32;;;3.25;;
1507;SDS011;745;48.586;10.032;2023-12-22T11:13:34;12.57;;;3.20;;
1507;SDS011;745;48.586;10.032;2023-12-22T11:15:35;11.43;;;4.03;;
1507;SDS011;745;48.586;10.032;2023-12-22T11:17:39;14.80;;;3.45;;
1507;SDS011;745;48.586;10.032;2023-12-22T11:19:40;9.50;;;2.50;;
1507;SDS011;745;48.586;10.032;2023-12-22T11:21:41;6.57;;;3.23;;
1507;SDS011;745;48.586;10.032;2023-12-22T11:23:43;7.68;;;3.15;;
1507;SDS011;745;48.586;10.032;2023-12-22T11:25:44;10.77;;;3.85;;
1507;SDS011;745;48.586;10.032;2023-12-22T11:27:46;15.48;;;3.38;;
1507;SDS011;745;48.586;10.032;2023-12-22T11:29:47;6.07;;;2.60;;
1507;SDS011;745;48.586;10.032;2023-12-22T11:31:51;9.90;;;3.42;;
1507;SDS011;745;48.586;10.032;2023-12-22T11:33:53;7.90;;;3.30;;
1507;SDS011;745;48.586;10.032;2023-12-22T11:35:55;11.13;;;5.67;;
1507;SDS011;745;48.586;10.032;2023-12-22T11:37:56;7.28;;;3.22;;
1507;SDS011;745;48.586;10.032;2023-12-22T11:39:57;5.93;;;3.17;;
1507;SDS011;745;48.586;10.032;2023-12-22T11:41:57;9.33;;;3.43;;
1507;SDS011;745;48.586;10.032;2023-12-22T11:43:58;6.40;;;2.70;;
1507;SDS011;745;48.586;10.032;2023-12-22T11:46:02;6.28;;;3.10;;
1507;SDS011;745;48.586;10.032;2023-12-22T11:48:07;5.32;;;3.67;;
1507;SDS011;745;48.586;10.032;2023-12-22T11:50:08;8.10;;;2.63;;
1507;SDS011;745;48.586;10.032;2023-12-22T11:52:13;7.32;;;2.75;;
1507;SDS011;745;48.586;10.032;2023-12-22T11:56:44;5.13;;;3.20;;
1507;SDS011;745;48.586;10.032;2023-12-22T11:58:45;5.60;;;2.88;;
1507;SDS011;745;48.586;10.032;2023-12-22T12:00:52;3.40;;;1.73;;
1507;SDS011;745;48.586;10.032;2023-12-22T12:02:55;2.20;;;2.00;;
1507;SDS011;745;48.586;10.032;2023-12-22T12:04:57;4.00;;;2.35;;
1507;SDS011;745;48.586;10.032;2023-12-22T12:06:59;3.60;;;2.35;;
1507;SDS011;745;48.586;10.032;2023-12-22T12:09:06;3.35;;;1.88;;
1507;SDS011;745;48.586;10.032;2023-12-22T12:11:09;3.97;;;2.20;;
1507;SDS011;745;48.586;10.032;2023-12-22T12:13:10;2.23;;;2.00;;
1507;SDS011;745;48.586;10.032;2023-12-22T12:15:16;2.70;;;2.00;;
1507;SDS011;745;48.586;10.032;2023-12-22T12:17:17;2.97;;;2.13;;
1507;SDS011;745;48.586;10.032;2023-12-22T12:19:19;2.08;;;1.88;;
1507;SDS011;745;48.586;10.032;2023-12-22T12:21:19;3.27;;;1.60;;
1507;SDS011;745;48.586;10.032;2023-12-22T12:23:20;1.80;;;1.57;;
1507;SDS011;745;48.586;10.032;2023-12-22T12:25:23;3.50;;;1.55;;
1507;SDS011;745;48.586;10.032;2023-12-22T12:27:27;4.85;;;2.17;;
1507;SDS011;745;48.586;10.032;2023-12-22T12:29:27;2.57;;;1.80;;
1507;SDS011;745;48.586;10.032;2023-12-22T12:31:37;3.13;;;1.70;;
1507;SDS011;745;48.586;10.032;2023-12-22T12:33:38;2.00;;;1.80;;
1507;SDS011;745;48.586;10.032;2023-12-22T12:35:39;2.07;;;1.60;;
1507;SDS011;745;48.586;10.032;2023-12-22T12:37:39;1.75;;;1.48;;
1507;SDS011;745;48.586;10.032;2023-12-22T12:39:40;2.40;;;1.70;;